createdAt,value
2018-11-26T00:00:07.962Z,98322.89
2018-11-26T00:02:36.091Z,98320.44
2018-11-26T00:05:04.285Z,98313.95
2018-11-26T00:07:33.374Z,98321.86
2018-11-26T00:10:12.938Z,98313.84
2018-11-26T00:12:41.088Z,98313.51
2018-11-26T00:15:09.331Z,98319.46
2018-11-26T00:17:37.457Z,98319.30
2018-11-26T00:20:06.520Z,98316.37
2018-11-26T00:22:34.706Z,98318.66
2018-11-26T00:25:02.889Z,98313.84
2018-11-26T00:27:31.103Z,98308.69
2018-11-26T00:29:59.319Z,98314.53
2018-11-26T00:32:27.458Z,98313.39
2018-11-26T00:34:55.668Z,98312.58
2018-11-26T00:37:23.800Z,98302.40
2018-11-26T00:39:52.026Z,98307.56
2018-11-26T00:42:20.183Z,98308.63
2018-11-26T00:44:48.310Z,98310.11
2018-11-26T00:47:16.450Z,98309.05
2018-11-26T00:49:44.607Z,98310.69
2018-11-26T00:52:12.773Z,98314.26
2018-11-26T00:54:40.957Z,98306.35
2018-11-26T00:57:09.096Z,98312.00
2018-11-26T00:59:37.327Z,98309.63
2018-11-26T01:02:05.742Z,98305.61
2018-11-26T01:04:33.867Z,98302.69
2018-11-26T01:07:02.004Z,98306.17
2018-11-26T01:09:30.141Z,98308.06
2018-11-26T01:11:58.283Z,98295.68
2018-11-26T01:14:26.495Z,98303.76
2018-11-26T01:16:54.622Z,98306.86
2018-11-26T01:19:22.793Z,98305.83
2018-11-26T01:21:51.868Z,98307.25
2018-11-26T01:24:20.004Z,98304.61
2018-11-26T01:26:48.154Z,98306.50
2018-11-26T01:29:16.302Z,98304.22
2018-11-26T01:31:44.478Z,98305.44
2018-11-26T01:34:12.622Z,98309.39
2018-11-26T01:36:40.805Z,98309.28
2018-11-26T01:39:09.355Z,98315.30
2018-11-26T01:41:37.626Z,98312.58
2018-11-26T01:44:05.763Z,98315.69
2018-11-26T01:46:33.924Z,98316.89
2018-11-26T01:49:02.100Z,98323.95
2018-11-26T01:51:30.231Z,98324.13
2018-11-26T01:53:58.376Z,98321.98
2018-11-26T01:56:26.516Z,98314.26
2018-11-26T01:58:54.794Z,98320.17
2018-11-26T02:01:22.977Z,98316.32
2018-11-26T02:03:51.177Z,98314.72
2018-11-26T02:06:19.308Z,98316.04
2018-11-26T02:08:47.423Z,98313.69
2018-11-26T02:11:15.561Z,98317.17
2018-11-26T02:13:43.688Z,98318.84
2018-11-26T02:16:11.901Z,98320.56
2018-11-26T02:18:40.117Z,98320.38
2018-11-26T02:21:08.247Z,98316.60
2018-11-26T02:23:36.422Z,98316.42
2018-11-26T02:26:04.701Z,98311.53
2018-11-26T02:28:33.694Z,98308.20
2018-11-26T02:31:01.827Z,98307.66
2018-11-26T02:33:29.977Z,98305.59
2018-11-26T02:35:58.103Z,98299.45
2018-11-26T02:38:26.278Z,98307.02
2018-11-26T02:40:54.459Z,98302.63
2018-11-26T02:43:22.594Z,98300.67
2018-11-26T02:45:50.791Z,98298.31
2018-11-26T02:48:18.928Z,98290.52
2018-11-26T02:50:47.155Z,98293.72
2018-11-26T02:53:15.794Z,98292.19
2018-11-26T02:55:44.008Z,98287.70
2018-11-26T02:58:12.172Z,98284.74
2018-11-26T03:00:40.454Z,98286.39
2018-11-26T03:03:08.593Z,98281.28
2018-11-26T03:05:36.807Z,98276.70
2018-11-26T03:08:04.975Z,98281.69
2018-11-26T03:10:33.231Z,98280.44
2018-11-26T03:13:01.372Z,98276.02
2018-11-26T03:15:29.500Z,98268.85
2018-11-26T03:17:57.671Z,98273.63
2018-11-26T03:20:25.936Z,98262.66
2018-11-26T03:22:54.326Z,98264.34
2018-11-26T03:25:22.459Z,98260.88
2018-11-26T03:27:50.663Z,98275.84
2018-11-26T03:30:19.803Z,98274.14
2018-11-26T03:32:47.898Z,98275.09
2018-11-26T03:35:16.119Z,98278.84
2018-11-26T03:37:44.328Z,98286.00
2018-11-26T03:40:13.280Z,98278.95
2018-11-26T03:42:41.579Z,98283.86
2018-11-26T03:45:14.834Z,98284.22
2018-11-26T03:47:43.017Z,98281.12
2018-11-26T03:50:12.047Z,98284.79
2018-11-26T03:52:40.493Z,98290.59
2018-11-26T03:55:09.794Z,98290.41
2018-11-26T03:57:37.965Z,98291.39
2018-11-26T04:00:10.948Z,98286.34
2018-11-26T04:02:39.225Z,98287.09
2018-11-26T04:05:08.417Z,98293.04
2018-11-26T04:07:36.660Z,98290.41
2018-11-26T04:10:06.189Z,98289.19
2018-11-26T04:12:34.370Z,98291.33
2018-11-26T04:15:02.512Z,98292.35
2018-11-26T04:17:30.726Z,98292.06
2018-11-26T04:19:58.899Z,98292.00
2018-11-26T04:22:27.134Z,98296.03
2018-11-26T04:24:55.243Z,98293.15
2018-11-26T04:27:23.405Z,98289.08
2018-11-26T04:29:51.602Z,98293.39
2018-11-26T04:32:19.763Z,98293.15
2018-11-26T04:34:47.931Z,98292.30
2018-11-26T04:37:16.121Z,98298.31
2018-11-26T04:39:44.335Z,98295.28
2018-11-26T04:42:12.458Z,98293.72
2018-11-26T04:44:40.609Z,98295.97
2018-11-26T04:47:08.791Z,98299.16
2018-11-26T04:49:36.972Z,98302.63
2018-11-26T04:52:05.367Z,98293.61
2018-11-26T04:54:33.522Z,98299.91
2018-11-26T04:57:01.691Z,98304.44
2018-11-26T04:59:29.867Z,98299.34
2018-11-26T05:01:57.991Z,98304.44
2018-11-26T05:04:26.176Z,98303.20
2018-11-26T05:06:54.312Z,98314.88
2018-11-26T05:09:22.470Z,98314.42
2018-11-26T05:11:50.744Z,98309.78
2018-11-26T05:14:18.909Z,98317.80
2018-11-26T05:16:47.090Z,98313.86
2018-11-26T05:19:15.267Z,98321.75
2018-11-26T05:21:43.399Z,98317.45
2018-11-26T05:24:11.918Z,98321.58
2018-11-26T05:26:40.046Z,98321.41
2018-11-26T05:29:08.258Z,98322.22
2018-11-26T05:31:36.463Z,98335.51
2018-11-26T05:34:04.596Z,98331.84
2018-11-26T05:36:32.717Z,98328.67
2018-11-26T05:39:00.866Z,98332.87
2018-11-26T05:41:29.042Z,98334.69
2018-11-26T05:43:57.171Z,98343.24
2018-11-26T05:46:25.375Z,98336.27
2018-11-26T05:48:53.542Z,98340.22
2018-11-26T05:51:21.683Z,98336.94
2018-11-26T05:53:49.811Z,98339.29
2018-11-26T05:56:17.958Z,98344.38
2018-11-26T05:58:46.224Z,98337.58
2018-11-26T06:01:14.578Z,98339.57
2018-11-26T06:03:42.716Z,98340.03
2018-11-26T06:06:10.875Z,98342.31
2018-11-26T06:08:39.158Z,98335.16
2018-11-26T06:11:07.319Z,98347.66
2018-11-26T06:13:35.999Z,98342.68
2018-11-26T06:16:05.098Z,98343.89
2018-11-26T06:18:33.218Z,98341.14
2018-11-26T06:21:01.560Z,98342.68
2018-11-26T06:23:29.780Z,98341.36
2018-11-26T06:25:58.287Z,98341.83
2018-11-26T06:28:26.502Z,98345.70
2018-11-26T06:30:54.690Z,98346.91
2018-11-26T06:33:22.922Z,98347.37
2018-11-26T06:35:51.061Z,98347.27
2018-11-26T06:38:19.735Z,98348.52
2018-11-26T06:40:47.963Z,98348.52
2018-11-26T06:43:17.361Z,98350.30
2018-11-26T06:45:44.528Z,98350.76
2018-11-26T06:48:12.666Z,98351.33
2018-11-26T06:50:40.918Z,98355.03
2018-11-26T06:53:09.130Z,98354.64
2018-11-26T06:55:37.291Z,98360.66
2018-11-26T06:58:05.447Z,98364.97
2018-11-26T07:00:33.579Z,98369.21
2018-11-26T07:03:01.807Z,98374.88
2018-11-26T07:05:30.044Z,98364.05
2018-11-26T07:07:58.469Z,98372.31
2018-11-26T07:10:26.711Z,98378.16
2018-11-26T07:12:55.793Z,98383.42
2018-11-26T07:15:24.014Z,98384.09
2018-11-26T07:17:52.125Z,98391.61
2018-11-26T07:20:21.632Z,98394.92
2018-11-26T07:22:49.769Z,98389.66
2018-11-26T07:25:19.567Z,98395.39
2018-11-26T07:27:52.088Z,98400.37
2018-11-26T07:30:28.610Z,98398.48
2018-11-26T07:32:56.821Z,98405.01
2018-11-26T07:35:24.969Z,98411.59
2018-11-26T07:37:53.161Z,98411.59
2018-11-26T07:40:23.321Z,98410.06
2018-11-26T07:42:56.032Z,98415.16
2018-11-26T07:45:24.167Z,98424.03
2018-11-26T07:47:52.308Z,98421.92
2018-11-26T07:50:20.454Z,98426.27
2018-11-26T07:52:48.670Z,98437.28
2018-11-26T07:55:19.887Z,98437.95
2018-11-26T07:57:48.063Z,98443.23
2018-11-26T08:00:19.106Z,98443.88
2018-11-26T08:02:47.747Z,98453.45
2018-11-26T08:05:18.611Z,98453.09
2018-11-26T08:07:46.969Z,98455.34
2018-11-26T08:10:16.231Z,98462.42
2018-11-26T08:12:45.055Z,98461.57
2018-11-26T08:15:16.350Z,98460.54
2018-11-26T08:17:44.499Z,98469.28
2018-11-26T08:20:12.651Z,98469.09
2018-11-26T08:22:41.215Z,98470.09
2018-11-26T08:25:10.472Z,98470.77
2018-11-26T08:27:39.030Z,98472.16
2018-11-26T08:30:11.561Z,98478.75
2018-11-26T08:32:39.991Z,98474.63
2018-11-26T08:35:08.893Z,98478.83
2018-11-26T08:37:37.172Z,98478.83
2018-11-26T08:40:11.730Z,98478.44
2018-11-26T08:42:40.018Z,98487.42
2018-11-26T08:45:16.641Z,98484.03
2018-11-26T08:47:50.342Z,98490.20
2018-11-26T08:50:18.518Z,98492.20
2018-11-26T08:52:46.678Z,98490.80
2018-11-26T08:55:14.959Z,98490.20
2018-11-26T08:57:43.101Z,98491.20
2018-11-26T09:00:11.877Z,98494.88
2018-11-26T09:02:46.089Z,98500.36
2018-11-26T09:05:23.997Z,98497.19
2018-11-26T09:07:47.797Z,98497.62
2018-11-26T09:10:15.961Z,98501.47
2018-11-26T09:12:44.148Z,98505.39
2018-11-26T09:15:12.322Z,98504.78
2018-11-26T09:17:40.444Z,98505.06
2018-11-26T09:20:10.818Z,98509.08
2018-11-26T09:22:39.357Z,98508.45
2018-11-26T09:25:11.375Z,98507.26
2018-11-26T09:27:39.540Z,98505.52
2018-11-26T09:30:13.027Z,98510.47
2018-11-26T09:32:42.033Z,98525.09
2018-11-26T09:35:12.827Z,98516.49
2018-11-26T09:37:41.108Z,98517.88
2018-11-26T09:40:14.884Z,98520.84
2018-11-26T09:42:43.110Z,98528.94
2018-11-26T09:45:14.465Z,98530.27
2018-11-26T09:47:42.648Z,98537.19
2018-11-26T09:50:13.068Z,98534.86
2018-11-26T09:52:41.226Z,98547.31
2018-11-26T09:55:10.299Z,98538.08
2018-11-26T09:57:38.504Z,98541.61
2018-11-26T10:00:15.336Z,98546.88
2018-11-26T10:02:44.583Z,98550.63
2018-11-26T10:05:17.752Z,98547.06
2018-11-26T10:07:45.983Z,98548.77
2018-11-26T10:10:14.382Z,98548.42
2018-11-26T10:12:43.433Z,98544.46
2018-11-26T10:15:16.895Z,98545.84
2018-11-26T10:17:45.089Z,98545.28
2018-11-26T10:20:13.263Z,98545.92
2018-11-26T10:22:41.828Z,98546.38
2018-11-26T10:25:12.165Z,98541.32
2018-11-26T10:27:40.722Z,98539.89
2018-11-26T10:30:14.929Z,98540.93
2018-11-26T10:32:43.549Z,98533.97
2018-11-26T10:35:13.694Z,98534.72
2018-11-26T10:37:42.361Z,98547.48
2018-11-26T10:40:12.491Z,98541.95
2018-11-26T10:42:40.617Z,98537.67
2018-11-26T10:45:11.269Z,98545.98
2018-11-26T10:47:39.463Z,98546.95
2018-11-26T10:50:09.532Z,98542.64
2018-11-26T10:52:37.669Z,98549.80
2018-11-26T10:55:09.371Z,98556.36
2018-11-26T10:57:37.526Z,98549.66
2018-11-26T11:00:07.570Z,98545.59
2018-11-26T11:02:41.694Z,98546.45
2018-11-26T11:05:10.295Z,98543.95
2018-11-26T11:07:38.557Z,98540.08
2018-11-26T11:10:11.128Z,98543.35
2018-11-26T11:12:39.403Z,98534.81
2018-11-26T11:15:09.695Z,98529.59
2018-11-26T11:17:37.927Z,98533.83
2018-11-26T11:20:10.147Z,98529.64
2018-11-26T11:22:38.295Z,98533.77
2018-11-26T11:25:07.443Z,98524.99
2018-11-26T11:27:35.733Z,98530.50
2018-11-26T11:30:07.801Z,98531.42
2018-11-26T11:32:36.255Z,98542.69
2018-11-26T11:35:05.615Z,98541.30
2018-11-26T11:37:33.865Z,98543.48
2018-11-26T11:40:01.993Z,98546.66
2018-11-26T11:42:30.192Z,98548.23
2018-11-26T11:44:58.349Z,98542.64
2018-11-26T11:47:26.541Z,98540.25
2018-11-26T11:49:54.681Z,98539.78
2018-11-26T11:52:23.346Z,98541.46
2018-11-26T11:54:51.503Z,98534.97
2018-11-26T11:57:19.655Z,98546.42
2018-11-26T11:59:49.141Z,98543.56
2018-11-26T12:02:17.525Z,98539.25
2018-11-26T12:04:45.752Z,98541.32
2018-11-26T12:07:14.029Z,98537.44
2018-11-26T12:09:42.158Z,98543.03
2018-11-26T12:12:10.328Z,98547.35
2018-11-26T12:14:38.596Z,98545.17
2018-11-26T12:17:06.763Z,98540.75
2018-11-26T12:19:34.944Z,98545.28
2018-11-26T12:22:03.147Z,98536.93
2018-11-26T12:24:31.292Z,98538.53
2018-11-26T12:26:59.528Z,98537.10
2018-11-26T12:29:27.757Z,98536.86
2018-11-26T12:31:55.917Z,98537.04
2018-11-26T12:34:24.235Z,98542.03
2018-11-26T12:36:57.751Z,98552.19
2018-11-26T12:39:21.626Z,98545.28
2018-11-26T12:41:49.850Z,98543.74
2018-11-26T12:44:18.039Z,98549.38
2018-11-26T12:46:46.167Z,98547.59
2018-11-26T12:49:14.453Z,98552.13
2018-11-26T12:51:42.640Z,98549.77
2018-11-26T12:54:10.791Z,98551.69
2018-11-26T12:56:39.902Z,98557.99
2018-11-26T12:59:08.131Z,98559.82
2018-11-26T13:01:36.347Z,98552.44
2018-11-26T13:04:04.891Z,98559.89
2018-11-26T13:06:33.104Z,98560.29
2018-11-26T13:09:01.262Z,98563.38
2018-11-26T13:11:30.363Z,98569.26
2018-11-26T13:13:58.575Z,98561.56
2018-11-26T13:16:26.994Z,98564.20
2018-11-26T13:18:56.375Z,98566.99
2018-11-26T13:21:24.706Z,98565.89
2018-11-26T13:23:52.930Z,98566.14
2018-11-26T13:26:21.218Z,98559.29
2018-11-26T13:28:49.699Z,98558.97
2018-11-26T13:31:18.189Z,98563.27
2018-11-26T13:33:46.494Z,98562.74
2018-11-26T13:36:14.668Z,98568.77
2018-11-26T13:38:42.878Z,98573.38
2018-11-26T13:41:11.129Z,98568.27
2018-11-26T13:43:39.456Z,98578.83
2018-11-26T13:46:07.690Z,98578.47
2018-11-26T13:48:36.278Z,98577.91
2018-11-26T13:51:04.494Z,98581.80
2018-11-26T13:53:32.752Z,98583.64
2018-11-26T13:56:00.935Z,98586.64
2018-11-26T13:58:29.175Z,98589.34
2018-11-26T14:00:57.545Z,98592.23
2018-11-26T14:03:25.791Z,98588.59
2018-11-26T14:05:53.981Z,98598.30
2018-11-26T14:08:22.406Z,98590.42
2018-11-26T14:10:50.676Z,98597.66
2018-11-26T14:13:19.006Z,98590.70
2018-11-26T14:15:47.224Z,98594.91
2018-11-26T14:18:15.368Z,98598.94
2018-11-26T14:20:43.515Z,98597.52
2018-11-26T14:23:11.711Z,98600.33
2018-11-26T14:25:40.121Z,98597.01
2018-11-26T14:28:08.292Z,98605.44
2018-11-26T14:30:37.197Z,98600.66
2018-11-26T14:33:06.528Z,98605.66
2018-11-26T14:35:34.900Z,98606.91
2018-11-26T14:38:06.906Z,98610.12
2018-11-26T14:40:39.505Z,98619.07
2018-11-26T14:43:08.080Z,98611.61
2018-11-26T14:45:36.314Z,98618.50
2018-11-26T14:48:04.549Z,98616.43
2018-11-26T14:50:33.462Z,98610.12
2018-11-26T14:53:04.704Z,98615.61
2018-11-26T14:55:35.913Z,98614.01
2018-11-26T14:58:04.241Z,98616.65
2018-11-26T15:00:32.374Z,98619.11
2018-11-26T15:03:00.652Z,98620.43
2018-11-26T15:05:28.968Z,98623.07
2018-11-26T15:07:57.324Z,98627.49
2018-11-26T15:10:26.321Z,98628.99
2018-11-26T15:12:54.506Z,98619.58
2018-11-26T15:15:27.706Z,98627.59
2018-11-26T15:17:55.931Z,98634.02
2018-11-26T15:20:26.292Z,98627.03
2018-11-26T15:22:55.618Z,98632.20
2018-11-26T15:25:24.972Z,98630.95
2018-11-26T15:27:54.490Z,98639.44
2018-11-26T15:30:23.084Z,98638.48
2018-11-26T15:32:51.320Z,98639.84
2018-11-26T15:35:20.689Z,98640.05
2018-11-26T15:37:48.900Z,98644.72
2018-11-26T15:40:18.771Z,98648.47
2018-11-26T15:42:47.050Z,98644.91
2018-11-26T15:45:17.627Z,98648.11
2018-11-26T15:47:46.525Z,98644.44
2018-11-26T15:50:14.798Z,98646.72
2018-11-26T15:52:43.030Z,98647.55
2018-11-26T15:55:12.582Z,98657.36
2018-11-26T15:57:40.735Z,98653.97
2018-11-26T16:00:12.616Z,98656.32
2018-11-26T16:02:40.950Z,98665.67
2018-11-26T16:05:11.018Z,98663.59
2018-11-26T16:07:39.434Z,98665.95
2018-11-26T16:10:10.411Z,98676.62
2018-11-26T16:12:38.793Z,98673.33
2018-11-26T16:15:16.985Z,98675.89
2018-11-26T16:17:45.286Z,98680.52
2018-11-26T16:20:15.120Z,98685.88
2018-11-26T16:22:43.449Z,98679.88
2018-11-26T16:25:13.011Z,98697.95
2018-11-26T16:27:41.298Z,98694.00
2018-11-26T16:30:11.289Z,98693.89
2018-11-26T16:32:39.713Z,98693.53
2018-11-26T16:35:14.488Z,98698.42
2018-11-26T16:37:42.630Z,98700.30
2018-11-26T16:40:13.280Z,98700.98
2018-11-26T16:42:41.616Z,98704.38
2018-11-26T16:45:13.332Z,98710.04
2018-11-26T16:47:41.533Z,98718.63
2018-11-26T16:50:11.779Z,98713.52
2018-11-26T16:52:40.060Z,98719.09
2018-11-26T16:55:13.415Z,98718.05
2018-11-26T16:57:41.867Z,98721.73
2018-11-26T17:00:19.220Z,98721.53
2018-11-26T17:02:48.587Z,98724.27
2018-11-26T17:05:19.444Z,98723.05
2018-11-26T17:07:47.806Z,98728.63
2018-11-26T17:10:16.135Z,98728.23
2018-11-26T17:12:44.458Z,98731.52
2018-11-26T17:15:13.920Z,98733.03
2018-11-26T17:17:42.098Z,98736.78
2018-11-26T17:20:12.412Z,98737.64
2018-11-26T17:22:40.740Z,98741.72
2018-11-26T17:25:10.353Z,98746.41
2018-11-26T17:27:39.499Z,98746.70
2018-11-26T17:30:19.033Z,98749.62
2018-11-26T17:32:48.806Z,98747.38
2018-11-26T17:35:17.377Z,98751.50
2018-11-26T17:37:45.653Z,98752.93
2018-11-26T17:40:19.170Z,98759.03
2018-11-26T17:42:47.587Z,98756.86
2018-11-26T17:45:16.550Z,98765.53
2018-11-26T17:47:46.516Z,98765.73
2018-11-26T17:50:17.055Z,98768.07
2018-11-26T17:52:45.200Z,98773.61
2018-11-26T17:55:13.702Z,98771.73
2018-11-26T17:57:42.014Z,98778.98
2018-11-26T18:00:12.616Z,98783.70
2018-11-26T18:02:41.496Z,98783.80
2018-11-26T18:05:18.041Z,98787.66
2018-11-26T18:07:47.790Z,98791.91
2018-11-26T18:10:16.095Z,98793.98
2018-11-26T18:12:44.362Z,98796.06
2018-11-26T18:15:14.373Z,98803.22
2018-11-26T18:17:43.513Z,98801.80
2018-11-26T18:20:13.850Z,98801.50
2018-11-26T18:22:43.280Z,98807.53
2018-11-26T18:25:12.066Z,98810.27
2018-11-26T18:27:43.385Z,98817.06
2018-11-26T18:30:13.969Z,98815.45
2018-11-26T18:32:42.307Z,98817.92
2018-11-26T18:35:10.644Z,98826.23
2018-11-26T18:37:38.880Z,98824.98
2018-11-26T18:40:10.607Z,98832.23
2018-11-26T18:42:38.967Z,98840.71
2018-11-26T18:45:15.714Z,98842.59
2018-11-26T18:47:44.340Z,98845.52
2018-11-26T18:50:16.619Z,98840.45
2018-11-26T18:52:45.327Z,98843.08
2018-11-26T18:55:13.610Z,98852.27
2018-11-26T18:57:42.299Z,98856.06
2018-11-26T19:00:15.172Z,98858.31
2018-11-26T19:02:43.400Z,98854.35
2018-11-26T19:05:12.601Z,98848.77
2018-11-26T19:07:40.949Z,98860.93
2018-11-26T19:10:15.424Z,98860.94
2018-11-26T19:12:44.820Z,98869.46
2018-11-26T19:15:16.264Z,98869.47
2018-11-26T19:17:44.395Z,98866.27
2018-11-26T19:20:13.076Z,98872.86
2018-11-26T19:22:41.926Z,98878.28
2018-11-26T19:25:12.674Z,98881.58
2018-11-26T19:27:40.981Z,98888.17
2018-11-26T19:30:13.349Z,98888.89
2018-11-26T19:32:42.216Z,98888.77
2018-11-26T19:35:11.777Z,98885.05
2018-11-26T19:37:40.032Z,98889.75
2018-11-26T19:40:13.799Z,98885.81
2018-11-26T19:42:43.253Z,98887.36
2018-11-26T19:45:13.824Z,98888.14
2018-11-26T19:47:42.102Z,98886.11
2018-11-26T19:50:12.036Z,98894.52
2018-11-26T19:52:40.478Z,98891.62
2018-11-26T19:55:14.272Z,98891.38
2018-11-26T19:57:42.492Z,98899.31
2018-11-26T20:00:13.187Z,98890.26
2018-11-26T20:02:42.516Z,98893.41
2018-11-26T20:05:17.916Z,98896.91
2018-11-26T20:07:46.115Z,98896.14
2018-11-26T20:10:14.336Z,98897.33
2018-11-26T20:12:42.541Z,98902.05
2018-11-26T20:15:13.635Z,98908.23
2018-11-26T20:17:42.208Z,98916.55
2018-11-26T20:20:10.671Z,98913.55
2018-11-26T20:22:39.171Z,98922.09
2018-11-26T20:25:11.206Z,98919.95
2018-11-26T20:27:39.386Z,98926.09
2018-11-26T20:30:11.392Z,98927.23
2018-11-26T20:32:40.308Z,98929.41
2018-11-26T20:35:09.660Z,98931.64
2018-11-26T20:37:38.044Z,98935.81
2018-11-26T20:40:09.981Z,98934.89
2018-11-26T20:42:38.501Z,98938.30
2018-11-26T20:45:12.708Z,98941.48
2018-11-26T20:47:40.917Z,98943.90
2018-11-26T20:50:17.587Z,98949.41
2018-11-26T20:52:45.759Z,98957.98
2018-11-26T20:55:15.563Z,98956.61
2018-11-26T20:57:44.900Z,98957.17
2018-11-26T21:00:16.516Z,98957.37
2018-11-26T21:02:45.341Z,98960.09
2018-11-26T21:05:13.576Z,98964.13
2018-11-26T21:07:41.941Z,98970.08
2018-11-26T21:10:11.637Z,98968.30
2018-11-26T21:12:39.976Z,98978.38
2018-11-26T21:15:12.780Z,98974.44
2018-11-26T21:17:41.098Z,98975.30
2018-11-26T21:20:11.409Z,98975.84
2018-11-26T21:22:41.561Z,98973.52
2018-11-26T21:25:12.102Z,98975.03
2018-11-26T21:27:40.355Z,98986.23
2018-11-26T21:30:14.805Z,98978.50
2018-11-26T21:32:43.124Z,98982.07
2018-11-26T21:35:12.857Z,98986.11
2018-11-26T21:37:42.244Z,98986.75
2018-11-26T21:40:11.710Z,98989.72
2018-11-26T21:42:46.445Z,98987.23
2018-11-26T21:45:17.100Z,98995.01
2018-11-26T21:47:45.378Z,98995.87
2018-11-26T21:50:15.214Z,99000.95
2018-11-26T21:52:43.594Z,99002.22
2018-11-26T21:55:13.681Z,99006.54
2018-11-26T21:57:41.973Z,99001.41
2018-11-26T22:00:23.355Z,99005.50
2018-11-26T22:02:51.914Z,99014.17
2018-11-26T22:05:20.166Z,99011.40
2018-11-26T22:07:48.344Z,99017.90
2018-11-26T22:10:20.578Z,99020.39
2018-11-26T22:12:49.945Z,99021.62
2018-11-26T22:15:18.116Z,99019.58
2018-11-26T22:17:46.307Z,99028.25
2018-11-26T22:20:27.741Z,99030.80
2018-11-26T22:22:56.343Z,99035.92
2018-11-26T22:25:24.497Z,99042.42
2018-11-26T22:27:53.360Z,99038.55
2018-11-26T22:30:30.671Z,99050.09
2018-11-26T22:32:58.961Z,99041.88
2018-11-26T22:35:27.184Z,99044.97
2018-11-26T22:37:55.437Z,99047.16
2018-11-26T22:40:24.800Z,99043.52
2018-11-26T22:42:53.176Z,99045.23
2018-11-26T22:45:23.215Z,99049.87
2018-11-26T22:47:56.561Z,99055.59
2018-11-26T22:50:24.798Z,99052.41
2018-11-26T22:52:52.993Z,99056.75
2018-11-26T22:55:21.195Z,99054.11
2018-11-26T22:57:49.321Z,99056.53
2018-11-26T23:00:24.808Z,99056.00
2018-11-26T23:02:54.176Z,99053.19
2018-11-26T23:05:22.354Z,99058.45
2018-11-26T23:07:50.529Z,99058.45
2018-11-26T23:10:18.667Z,99057.28
2018-11-26T23:12:46.876Z,99059.08
2018-11-26T23:15:15.681Z,99064.53
2018-11-26T23:17:44.447Z,99060.73
2018-11-26T23:20:13.743Z,99069.91
2018-11-26T23:22:42.000Z,99068.86
2018-11-26T23:25:16.185Z,99074.45
2018-11-26T23:27:44.404Z,99070.36
2018-11-26T23:30:17.919Z,99069.77
2018-11-26T23:32:47.339Z,99069.18
2018-11-26T23:35:15.467Z,99071.13
2018-11-26T23:37:43.683Z,99068.12
2018-11-26T23:40:12.655Z,99063.55
2018-11-26T23:42:40.827Z,99062.91
2018-11-26T23:45:11.806Z,99066.86
2018-11-26T23:47:40.051Z,99062.54
2018-11-26T23:50:09.460Z,99068.35
2018-11-26T23:52:38.947Z,99076.25
2018-11-26T23:55:08.036Z,99075.43
2018-11-26T23:57:36.186Z,99074.39
